createdAt,value
2018-10-12T00:00:03.493Z,98.08
2018-10-12T00:01:03.491Z,97.99
2018-10-12T00:02:03.492Z,97.89
2018-10-12T00:03:03.487Z,98.28
2018-10-12T00:04:03.486Z,98.08
2018-10-12T00:05:03.488Z,97.99
2018-10-12T00:06:03.483Z,97.99
2018-10-12T00:07:03.481Z,97.89
2018-10-12T00:08:03.479Z,98.66
2018-10-12T00:09:03.478Z,98.94
2018-10-12T00:10:03.477Z,99.04
2018-10-12T00:11:03.476Z,98.85
2018-10-12T00:12:03.475Z,99.23
2018-10-12T00:13:03.473Z,98.75
2018-10-12T00:14:03.470Z,98.57
2018-10-12T00:15:03.470Z,98.75
2018-10-12T00:16:03.468Z,99.99
2018-10-12T00:17:03.465Z,99.33
2018-10-12T00:18:03.464Z,99.99
2018-10-12T00:19:03.461Z,99.57
2018-10-12T00:20:03.459Z,99.38
2018-10-12T00:21:03.458Z,98.13
2018-10-12T00:22:03.457Z,97.75
2018-10-12T00:23:03.454Z,97.56
2018-10-12T00:24:03.453Z,96.99
2018-10-12T00:25:03.452Z,96.80
2018-10-12T00:26:03.450Z,96.80
2018-10-12T00:27:03.449Z,96.13
2018-10-12T00:28:03.447Z,97.56
2018-10-12T00:29:03.445Z,97.75
2018-10-12T00:30:03.445Z,97.85
2018-10-12T00:31:03.442Z,96.70
2018-10-12T00:32:03.440Z,96.56
2018-10-12T00:33:03.441Z,96.99
2018-10-12T00:34:03.437Z,97.56
2018-10-12T00:35:03.433Z,98.08
2018-10-12T00:36:03.432Z,98.71
2018-10-12T00:37:03.430Z,97.75
2018-10-12T00:38:03.428Z,97.85
2018-10-12T00:39:03.426Z,97.71
2018-10-12T00:40:03.426Z,97.52
2018-10-12T00:41:03.423Z,97.99
2018-10-12T00:42:03.421Z,98.47
2018-10-12T00:43:03.421Z,98.37
2018-10-12T00:44:03.418Z,98.66
2018-10-12T00:45:03.426Z,99.99
2018-10-12T00:46:03.414Z,99.80
2018-10-12T00:47:03.412Z,99.99
2018-10-12T00:48:03.414Z,99.04
2018-10-12T00:49:03.410Z,98.28
2018-10-12T00:50:03.408Z,98.85
2018-10-12T00:51:03.404Z,99.23
2018-10-12T00:52:03.403Z,99.04
2018-10-12T00:53:03.401Z,99.14
2018-10-12T00:54:03.400Z,99.43
2018-10-12T00:55:03.397Z,99.52
2018-10-12T00:56:03.396Z,99.99
2018-10-12T00:57:03.394Z,99.99
2018-10-12T00:58:03.392Z,99.99
2018-10-12T00:59:03.390Z,99.99
2018-10-12T01:00:03.388Z,99.99
2018-10-12T01:01:03.387Z,99.99
2018-10-12T01:02:03.383Z,99.99
2018-10-12T01:03:03.382Z,99.99
2018-10-12T01:04:03.380Z,99.99
2018-10-12T01:05:03.377Z,99.99
2018-10-12T01:06:03.376Z,99.99
2018-10-12T01:07:03.374Z,99.99
2018-10-12T01:08:03.370Z,99.99
2018-10-12T01:09:03.370Z,99.99
2018-10-12T01:10:03.368Z,99.99
2018-10-12T01:11:03.370Z,99.99
2018-10-12T01:12:03.407Z,99.99
2018-10-12T01:13:03.367Z,99.99
2018-10-12T01:14:03.363Z,99.99
2018-10-12T01:15:03.357Z,99.99
2018-10-12T01:16:03.355Z,99.99
2018-10-12T01:17:03.353Z,99.99
2018-10-12T01:18:03.352Z,99.99
2018-10-12T01:19:03.348Z,99.99
2018-10-12T01:20:03.346Z,99.99
2018-10-12T01:21:03.348Z,99.99
2018-10-12T01:22:03.342Z,99.99
2018-10-12T01:23:03.341Z,99.99
2018-10-12T01:24:03.337Z,99.99
2018-10-12T01:25:03.336Z,99.99
2018-10-12T01:26:03.334Z,99.99
2018-10-12T01:27:03.331Z,99.99
2018-10-12T01:28:03.335Z,99.99
2018-10-12T01:29:03.329Z,99.99
2018-10-12T01:30:03.328Z,99.99
2018-10-12T01:31:03.321Z,99.99
2018-10-12T01:32:03.320Z,99.99
2018-10-12T01:33:03.319Z,99.99
2018-10-12T01:34:03.315Z,99.99
2018-10-12T01:35:03.315Z,99.99
2018-10-12T01:36:03.311Z,99.99
2018-10-12T01:37:03.310Z,99.99
2018-10-12T01:38:03.310Z,99.99
2018-10-12T01:39:03.303Z,99.99
2018-10-12T01:40:03.302Z,99.99
2018-10-12T01:41:03.300Z,99.99
2018-10-12T01:42:03.299Z,99.99
2018-10-12T01:43:03.295Z,99.99
2018-10-12T01:44:03.294Z,99.99
2018-10-12T01:45:03.291Z,99.99
2018-10-12T01:46:03.288Z,99.99
2018-10-12T01:47:03.285Z,99.99
2018-10-12T01:48:03.287Z,99.99
2018-10-12T01:49:03.281Z,99.99
2018-10-12T01:50:03.279Z,99.99
2018-10-12T01:51:03.277Z,99.99
2018-10-12T01:52:03.276Z,99.99
2018-10-12T01:53:03.271Z,99.99
2018-10-12T01:54:03.271Z,99.99
2018-10-12T01:55:03.267Z,99.99
2018-10-12T01:56:03.265Z,99.99
2018-10-12T01:57:03.263Z,99.99
2018-10-12T01:58:03.260Z,99.99
2018-10-12T01:59:03.258Z,99.99
2018-10-12T02:00:03.256Z,99.99
2018-10-12T02:01:03.253Z,99.99
2018-10-12T02:02:03.252Z,99.99
2018-10-12T02:03:03.249Z,99.99
2018-10-12T02:04:03.248Z,99.99
2018-10-12T02:05:03.244Z,99.99
2018-10-12T02:06:03.242Z,99.99
2018-10-12T02:07:03.240Z,99.99
2018-10-12T02:08:03.238Z,99.99
2018-10-12T02:09:03.234Z,99.99
2018-10-12T02:10:03.324Z,99.99
2018-10-12T02:11:03.231Z,99.99
2018-10-12T02:12:03.228Z,99.99
2018-10-12T02:13:03.229Z,99.99
2018-10-12T02:14:03.224Z,99.99
2018-10-12T02:15:03.219Z,99.99
2018-10-12T02:16:03.219Z,99.99
2018-10-12T02:17:03.218Z,99.99
2018-10-12T02:18:03.213Z,99.99
2018-10-12T02:19:03.211Z,99.99
2018-10-12T02:20:03.207Z,99.99
2018-10-12T02:21:03.206Z,99.99
2018-10-12T02:22:03.203Z,99.99
2018-10-12T02:23:03.200Z,99.99
2018-10-12T02:24:03.198Z,99.99
2018-10-12T02:25:03.196Z,99.99
2018-10-12T02:26:03.199Z,99.99
2018-10-12T02:27:03.191Z,99.99
2018-10-12T02:28:03.188Z,99.99
2018-10-12T02:29:03.185Z,99.99
2018-10-12T02:30:03.185Z,99.99
2018-10-12T02:31:03.182Z,99.99
2018-10-12T02:32:03.179Z,99.99
2018-10-12T02:33:03.175Z,99.99
2018-10-12T02:34:03.173Z,99.99
2018-10-12T02:35:03.171Z,99.99
2018-10-12T02:36:03.169Z,99.99
2018-10-12T02:37:03.169Z,99.99
2018-10-12T02:38:03.162Z,99.99
2018-10-12T02:39:03.163Z,99.99
2018-10-12T02:40:03.158Z,99.99
2018-10-12T02:41:03.155Z,99.99
2018-10-12T02:42:03.152Z,99.99
2018-10-12T02:43:03.149Z,99.99
2018-10-12T02:44:03.147Z,99.99
2018-10-12T02:45:03.144Z,99.99
2018-10-12T02:46:03.141Z,99.99
2018-10-12T02:47:03.141Z,99.99
2018-10-12T02:48:03.136Z,99.99
2018-10-12T02:49:03.135Z,99.99
2018-10-12T02:50:03.131Z,99.99
2018-10-12T02:51:03.130Z,99.99
2018-10-12T02:52:03.127Z,99.99
2018-10-12T02:53:03.130Z,99.99
2018-10-12T02:54:03.121Z,99.99
2018-10-12T02:55:03.117Z,99.99
2018-10-12T02:56:03.114Z,99.99
2018-10-12T02:57:03.112Z,99.99
2018-10-12T02:58:03.110Z,99.99
2018-10-12T02:59:03.107Z,99.99
2018-10-12T03:00:03.104Z,99.99
2018-10-12T03:01:03.101Z,99.99
2018-10-12T03:02:03.098Z,99.99
2018-10-12T03:03:03.095Z,99.99
2018-10-12T03:04:03.092Z,99.99
2018-10-12T03:05:03.091Z,99.99
2018-10-12T03:06:03.088Z,99.99
2018-10-12T03:07:03.084Z,99.99
2018-10-12T03:08:03.083Z,99.99
2018-10-12T03:09:03.080Z,99.99
2018-10-12T03:10:03.077Z,99.99
2018-10-12T03:11:03.074Z,99.99
2018-10-12T03:12:03.070Z,99.99
2018-10-12T03:13:03.068Z,99.99
2018-10-12T03:14:03.067Z,99.99
2018-10-12T03:15:03.062Z,99.99
2018-10-12T03:16:03.060Z,99.99
2018-10-12T03:17:03.058Z,99.99
2018-10-12T03:18:03.059Z,99.99
2018-10-12T03:19:03.050Z,99.99
2018-10-12T03:20:03.048Z,99.99
2018-10-12T03:21:03.047Z,99.99
2018-10-12T03:22:03.045Z,99.99
2018-10-12T03:23:03.040Z,99.99
2018-10-12T03:24:03.039Z,99.99
2018-10-12T03:25:03.037Z,99.99
2018-10-12T03:26:03.034Z,99.99
2018-10-12T03:27:03.029Z,99.99
2018-10-12T03:28:03.026Z,99.99
2018-10-12T03:29:03.025Z,99.99
2018-10-12T03:30:03.021Z,99.99
2018-10-12T03:31:03.018Z,99.99
2018-10-12T03:32:03.015Z,99.99
2018-10-12T03:33:03.013Z,99.99
2018-10-12T03:34:03.011Z,99.99
2018-10-12T03:35:03.006Z,99.99
2018-10-12T03:36:03.006Z,99.99
2018-10-12T03:37:03.044Z,99.99
2018-10-12T03:38:03.000Z,99.99
2018-10-12T03:39:02.997Z,99.99
2018-10-12T03:40:02.992Z,99.99
2018-10-12T03:41:02.995Z,99.99
2018-10-12T03:42:02.988Z,99.99
2018-10-12T03:43:02.989Z,99.99
2018-10-12T03:44:02.981Z,99.99
2018-10-12T03:45:02.980Z,99.99
2018-10-12T03:46:02.975Z,99.99
2018-10-12T03:47:02.974Z,99.99
2018-10-12T03:48:02.971Z,99.99
2018-10-12T03:49:02.968Z,99.99
2018-10-12T03:50:02.965Z,99.99
2018-10-12T03:51:02.961Z,99.99
2018-10-12T03:52:02.967Z,99.99
2018-10-12T03:53:02.956Z,99.99
2018-10-12T03:54:02.953Z,99.99
2018-10-12T03:55:02.952Z,99.99
2018-10-12T03:56:02.948Z,99.99
2018-10-12T03:57:02.945Z,99.99
2018-10-12T03:58:02.942Z,99.99
2018-10-12T03:59:02.939Z,99.99
2018-10-12T04:00:02.937Z,99.99
2018-10-12T04:01:02.933Z,99.99
2018-10-12T04:02:02.931Z,99.99
2018-10-12T04:03:02.927Z,99.99
2018-10-12T04:04:02.926Z,99.99
2018-10-12T04:05:02.923Z,99.99
2018-10-12T04:06:02.919Z,99.99
2018-10-12T04:07:02.915Z,99.99
2018-10-12T04:08:02.912Z,99.99
2018-10-12T04:09:02.910Z,99.99
2018-10-12T04:10:02.907Z,99.99
2018-10-12T04:11:02.903Z,99.99
2018-10-12T04:12:02.905Z,99.99
2018-10-12T04:13:02.899Z,99.99
2018-10-12T04:14:02.896Z,99.99
2018-10-12T04:15:02.892Z,99.99
2018-10-12T04:16:02.889Z,99.99
2018-10-12T04:17:02.886Z,99.99
2018-10-12T04:18:02.885Z,99.99
2018-10-12T04:19:02.880Z,99.99
2018-10-12T04:20:02.877Z,99.99
2018-10-12T04:21:02.874Z,99.99
2018-10-12T04:22:02.873Z,99.99
2018-10-12T04:23:02.868Z,99.99
2018-10-12T04:24:02.867Z,99.99
2018-10-12T04:25:02.863Z,99.99
2018-10-12T04:26:02.859Z,99.99
2018-10-12T04:27:02.856Z,99.99
2018-10-12T04:28:02.855Z,99.99
2018-10-12T04:29:02.866Z,99.99
2018-10-12T04:30:02.850Z,99.99
2018-10-12T04:31:02.845Z,99.99
2018-10-12T04:32:02.843Z,99.99
2018-10-12T04:33:02.840Z,99.99
2018-10-12T04:34:02.869Z,99.99
2018-10-12T04:35:02.835Z,99.99
2018-10-12T04:36:02.830Z,99.99
2018-10-12T04:37:02.827Z,99.99
2018-10-12T04:38:02.824Z,99.99
2018-10-12T04:39:02.820Z,99.99
2018-10-12T04:40:02.818Z,99.99
2018-10-12T04:41:02.816Z,99.99
2018-10-12T04:42:02.811Z,99.99
2018-10-12T04:43:02.808Z,99.99
2018-10-12T04:44:02.806Z,99.99
2018-10-12T04:45:02.802Z,99.99
2018-10-12T04:46:02.801Z,99.99
2018-10-12T04:47:02.802Z,99.99
2018-10-12T04:48:02.793Z,99.99
2018-10-12T04:49:02.790Z,99.99
2018-10-12T04:50:02.787Z,99.99
2018-10-12T04:51:02.786Z,99.99
2018-10-12T04:52:02.780Z,99.99
2018-10-12T04:53:02.801Z,99.99
2018-10-12T04:54:02.774Z,99.99
2018-10-12T04:55:02.770Z,99.99
2018-10-12T04:56:02.775Z,99.99
2018-10-12T04:57:02.764Z,99.99
2018-10-12T04:58:02.763Z,99.99
2018-10-12T04:59:02.759Z,99.99
2018-10-12T05:00:02.759Z,99.99
2018-10-12T05:01:02.816Z,99.99
2018-10-12T05:02:02.751Z,99.99
2018-10-12T05:03:02.745Z,99.99
2018-10-12T05:04:02.743Z,99.99
2018-10-12T05:05:02.740Z,99.99
2018-10-12T05:06:02.737Z,99.99
2018-10-12T05:07:02.733Z,99.99
2018-10-12T05:08:02.729Z,99.99
2018-10-12T05:09:02.726Z,99.99
2018-10-12T05:10:02.725Z,99.99
2018-10-12T05:11:02.720Z,99.99
2018-10-12T05:12:02.716Z,99.99
2018-10-12T05:13:02.714Z,99.99
2018-10-12T05:14:02.712Z,99.99
2018-10-12T05:15:02.708Z,99.99
2018-10-12T05:16:02.705Z,99.99
2018-10-12T05:17:02.700Z,99.99
2018-10-12T05:18:02.697Z,99.99
2018-10-12T05:19:02.697Z,99.99
2018-10-12T05:20:02.694Z,99.99
2018-10-12T05:21:02.688Z,99.99
2018-10-12T05:22:02.728Z,99.99
2018-10-12T05:23:02.682Z,99.99
2018-10-12T05:24:02.680Z,99.99
2018-10-12T05:25:02.678Z,99.99
2018-10-12T05:26:02.676Z,99.99
2018-10-12T05:27:02.668Z,99.99
2018-10-12T05:28:02.667Z,99.99
2018-10-12T05:29:02.678Z,99.99
2018-10-12T05:30:02.721Z,99.99
2018-10-12T05:31:02.658Z,99.99
2018-10-12T05:32:02.653Z,99.99
2018-10-12T05:33:02.650Z,99.99
2018-10-12T05:34:02.649Z,99.99
2018-10-12T05:35:02.643Z,99.99
2018-10-12T05:36:02.688Z,99.99
2018-10-12T05:37:02.638Z,99.99
2018-10-12T05:38:02.634Z,99.99
2018-10-12T05:39:02.632Z,99.99
2018-10-12T05:40:02.629Z,99.99
2018-10-12T05:41:02.627Z,99.99
2018-10-12T05:42:02.622Z,99.99
2018-10-12T05:43:02.631Z,99.99
2018-10-12T05:44:02.616Z,99.99
2018-10-12T05:45:02.614Z,99.99
2018-10-12T05:46:02.610Z,99.99
2018-10-12T05:47:02.608Z,99.99
2018-10-12T05:48:02.605Z,99.99
2018-10-12T05:49:02.603Z,99.99
2018-10-12T05:50:02.597Z,99.99
2018-10-12T05:51:02.594Z,99.99
2018-10-12T05:52:02.592Z,99.99
2018-10-12T05:53:02.590Z,99.99
2018-10-12T05:54:02.586Z,99.99
2018-10-12T05:55:02.583Z,99.99
2018-10-12T05:56:02.579Z,99.99
2018-10-12T05:57:02.578Z,99.99
2018-10-12T05:58:02.577Z,99.99
2018-10-12T05:59:02.569Z,99.99
2018-10-12T06:00:02.567Z,99.99
2018-10-12T06:01:02.564Z,99.99
2018-10-12T06:02:02.566Z,99.99
2018-10-12T06:03:02.557Z,99.99
2018-10-12T06:04:02.554Z,99.99
2018-10-12T06:05:02.557Z,99.99
2018-10-12T06:06:02.550Z,99.99
2018-10-12T06:07:02.547Z,99.99
2018-10-12T06:08:02.543Z,99.99
2018-10-12T06:09:02.540Z,99.99
2018-10-12T06:10:02.616Z,99.99
2018-10-12T06:11:02.534Z,99.99
2018-10-12T06:12:02.531Z,99.99
2018-10-12T06:13:02.527Z,99.99
2018-10-12T06:14:02.525Z,99.99
2018-10-12T06:15:02.521Z,99.99
2018-10-12T06:16:02.577Z,99.99
2018-10-12T06:17:02.515Z,99.99
2018-10-12T06:18:02.513Z,99.99
2018-10-12T06:19:02.509Z,99.99
2018-10-12T06:20:02.506Z,99.99
2018-10-12T06:21:02.503Z,99.99
2018-10-12T06:22:02.501Z,99.99
2018-10-12T06:23:02.496Z,99.99
2018-10-12T06:24:02.498Z,99.99
2018-10-12T06:25:02.492Z,99.99
2018-10-12T06:26:02.491Z,99.99
2018-10-12T06:27:02.484Z,99.99
2018-10-12T06:28:02.482Z,99.99
2018-10-12T06:29:02.480Z,99.99
2018-10-12T06:30:02.477Z,99.99
2018-10-12T06:31:02.472Z,99.99
2018-10-12T06:32:02.471Z,99.99
2018-10-12T06:33:02.548Z,99.99
2018-10-12T06:34:02.465Z,99.99
2018-10-12T06:35:02.461Z,99.99
2018-10-12T06:36:02.461Z,99.99
2018-10-12T06:37:02.454Z,99.99
2018-10-12T06:38:02.453Z,99.99
2018-10-12T06:39:02.449Z,99.99
2018-10-12T06:40:02.446Z,99.99
2018-10-12T06:41:02.526Z,99.99
2018-10-12T06:42:02.442Z,99.99
2018-10-12T06:43:02.440Z,99.99
2018-10-12T06:44:02.434Z,99.99
2018-10-12T06:45:02.431Z,99.99
2018-10-12T06:46:02.428Z,99.99
2018-10-12T06:47:02.425Z,99.99
2018-10-12T06:48:02.422Z,99.99
2018-10-12T06:49:02.421Z,99.99
2018-10-12T06:50:02.417Z,99.99
2018-10-12T06:51:02.414Z,99.99
2018-10-12T06:52:02.411Z,99.99
2018-10-12T06:53:02.408Z,99.99
2018-10-12T06:54:02.477Z,99.99
2018-10-12T06:55:02.403Z,99.99
2018-10-12T06:56:02.400Z,99.99
2018-10-12T06:57:02.397Z,99.99
2018-10-12T06:58:02.404Z,99.99
2018-10-12T06:59:02.392Z,99.99
2018-10-12T07:00:02.496Z,99.99
2018-10-12T07:01:02.386Z,99.99
2018-10-12T07:02:02.385Z,99.99
2018-10-12T07:03:02.379Z,99.99
2018-10-12T07:04:02.379Z,99.99
2018-10-12T07:05:02.374Z,99.99
2018-10-12T07:06:02.371Z,99.99
2018-10-12T07:07:02.368Z,99.99
2018-10-12T07:08:02.364Z,99.99
2018-10-12T07:09:02.362Z,99.99
2018-10-12T07:10:02.361Z,99.99
2018-10-12T07:11:02.359Z,99.99
2018-10-12T07:12:02.354Z,99.99
2018-10-12T07:13:02.355Z,99.99
2018-10-12T07:14:02.351Z,99.99
2018-10-12T07:15:02.345Z,99.99
2018-10-12T07:16:02.347Z,99.99
2018-10-12T07:17:02.341Z,99.99
2018-10-12T07:18:02.340Z,99.99
2018-10-12T07:19:02.337Z,99.99
2018-10-12T07:20:02.334Z,99.99
2018-10-12T07:21:02.335Z,99.99
2018-10-12T07:22:02.331Z,99.99
2018-10-12T07:23:02.328Z,99.99
2018-10-12T07:24:02.323Z,99.99
2018-10-12T07:25:02.326Z,99.99
2018-10-12T07:26:02.403Z,99.99
2018-10-12T07:27:02.318Z,99.99
2018-10-12T07:28:02.316Z,99.99
2018-10-12T07:29:02.313Z,99.99
2018-10-12T07:30:02.310Z,99.99
2018-10-12T07:31:02.307Z,99.99
2018-10-12T07:32:02.306Z,99.99
2018-10-12T07:33:02.305Z,99.99
2018-10-12T07:34:02.303Z,99.99
2018-10-12T07:35:02.298Z,99.99
2018-10-12T07:36:02.296Z,99.99
2018-10-12T07:37:02.327Z,99.99
2018-10-12T07:38:02.293Z,99.99
2018-10-12T07:39:02.294Z,99.99
2018-10-12T07:40:02.289Z,99.99
2018-10-12T07:41:02.290Z,99.99
2018-10-12T07:42:02.285Z,99.99
2018-10-12T07:43:02.284Z,99.99
2018-10-12T07:44:02.282Z,99.99
2018-10-12T07:45:02.280Z,99.99
2018-10-12T07:46:02.279Z,99.99
2018-10-12T07:47:02.276Z,99.99
2018-10-12T07:48:02.306Z,99.99
2018-10-12T07:49:02.272Z,99.99
2018-10-12T07:50:02.275Z,99.91
2018-10-12T07:51:02.268Z,99.63
2018-10-12T07:52:02.268Z,98.57
2018-10-12T07:53:02.271Z,97.76
2018-10-12T07:54:02.265Z,97.09
2018-10-12T07:55:02.262Z,96.03
2018-10-12T07:56:02.262Z,96.18
2018-10-12T07:57:02.261Z,95.51
2018-10-12T07:58:02.259Z,95.21
2018-10-12T07:59:02.256Z,94.64
2018-10-12T08:00:02.280Z,94.88
2018-10-12T08:01:02.255Z,94.31
2018-10-12T08:02:02.256Z,94.02
2018-10-12T08:03:02.251Z,94.12
2018-10-12T08:04:02.252Z,94.02
2018-10-12T08:05:02.249Z,94.31
2018-10-12T08:06:02.253Z,93.73
2018-10-12T08:07:02.247Z,93.63
2018-10-12T08:08:02.246Z,93.44
2018-10-12T08:09:02.245Z,92.96
2018-10-12T08:10:02.247Z,92.19
2018-10-12T08:11:02.245Z,91.76
2018-10-12T08:12:02.243Z,91.76
2018-10-12T08:13:02.243Z,91.57
2018-10-12T08:14:02.266Z,90.90
2018-10-12T08:15:02.241Z,90.22
2018-10-12T08:16:02.240Z,90.13
2018-10-12T08:17:02.239Z,89.89
2018-10-12T08:18:02.244Z,89.22
2018-10-12T08:19:02.242Z,89.40
2018-10-12T08:20:02.239Z,89.31
2018-10-12T08:21:02.240Z,88.93
2018-10-12T08:22:02.237Z,89.12
2018-10-12T08:23:02.239Z,88.73
2018-10-12T08:24:02.235Z,89.40
2018-10-12T08:25:02.234Z,88.54
2018-10-12T08:26:02.236Z,88.64
2018-10-12T08:27:02.294Z,87.68
2018-10-12T08:28:02.234Z,86.85
2018-10-12T08:29:02.235Z,86.09
2018-10-12T08:30:02.237Z,87.05
2018-10-12T08:31:02.233Z,86.22
2018-10-12T08:32:02.234Z,85.84
2018-10-12T08:33:02.252Z,86.04
2018-10-12T08:34:02.234Z,85.65
2018-10-12T08:35:02.235Z,86.04
2018-10-12T08:36:02.232Z,85.36
2018-10-12T08:37:02.233Z,85.46
2018-10-12T08:38:02.233Z,84.88
2018-10-12T08:39:02.233Z,85.17
2018-10-12T08:40:02.232Z,85.36
2018-10-12T08:41:02.237Z,84.98
2018-10-12T08:42:02.236Z,85.17
2018-10-12T08:43:02.232Z,84.73
2018-10-12T08:44:02.236Z,85.40
2018-10-12T08:45:02.234Z,85.31
2018-10-12T08:46:02.240Z,84.44
2018-10-12T08:47:02.235Z,84.44
2018-10-12T08:48:02.234Z,84.44
2018-10-12T08:49:02.242Z,84.44
2018-10-12T08:50:02.237Z,84.16
2018-10-12T08:51:02.237Z,84.06
2018-10-12T08:52:02.237Z,83.86
2018-10-12T08:53:02.239Z,83.96
2018-10-12T08:54:02.238Z,84.06
2018-10-12T08:55:02.238Z,83.77
2018-10-12T08:56:02.244Z,83.77
2018-10-12T08:57:02.241Z,83.52
2018-10-12T08:58:02.240Z,83.42
2018-10-12T08:59:02.242Z,83.14
2018-10-12T09:00:02.242Z,82.94
2018-10-12T09:01:02.244Z,82.56
2018-10-12T09:02:02.243Z,83.14
2018-10-12T09:03:02.307Z,82.94
2018-10-12T09:04:02.245Z,82.65
2018-10-12T09:05:02.248Z,82.56
2018-10-12T09:06:02.247Z,82.60
2018-10-12T09:07:02.251Z,82.21
2018-10-12T09:08:02.298Z,82.21
2018-10-12T09:09:02.255Z,82.41
2018-10-12T09:10:02.251Z,82.50
2018-10-12T09:11:02.251Z,82.79
2018-10-12T09:12:02.255Z,82.31
2018-10-12T09:13:02.261Z,82.26
2018-10-12T09:14:02.255Z,81.20
2018-10-12T09:15:02.259Z,81.58
2018-10-12T09:16:02.258Z,81.52
2018-10-12T09:17:02.259Z,80.94
2018-10-12T09:18:02.262Z,80.51
2018-10-12T09:19:02.264Z,79.49
2018-10-12T09:20:02.269Z,77.92
2018-10-12T09:21:02.265Z,75.20
2018-10-12T09:22:02.269Z,73.72
2018-10-12T09:23:02.271Z,73.72
2018-10-12T09:24:02.275Z,72.72
2018-10-12T09:25:02.280Z,72.40
2018-10-12T09:26:02.283Z,71.50
2018-10-12T09:27:02.287Z,71.66
2018-10-12T09:28:02.293Z,70.01
2018-10-12T09:29:02.297Z,69.08
2018-10-12T09:30:02.304Z,69.08
2018-10-12T09:31:02.308Z,69.18
2018-10-12T09:32:02.315Z,68.21
2018-10-12T09:33:02.320Z,68.21
2018-10-12T09:34:02.328Z,67.66
2018-10-12T09:35:02.335Z,67.95
2018-10-12T09:36:02.343Z,66.60
2018-10-12T09:37:02.446Z,68.21
2018-10-12T09:38:02.358Z,68.85
2018-10-12T09:39:02.364Z,68.99
2018-10-12T09:40:02.375Z,67.69
2018-10-12T09:41:02.383Z,69.05
2018-10-12T09:42:02.392Z,69.53
2018-10-12T09:43:02.399Z,69.08
2018-10-12T09:44:02.415Z,69.05
2018-10-12T09:45:02.419Z,69.63
2018-10-12T09:46:02.426Z,69.18
2018-10-12T09:47:02.437Z,67.98
2018-10-12T09:48:02.445Z,68.66
2018-10-12T09:49:02.454Z,70.08
2018-10-12T09:50:02.465Z,70.76
2018-10-12T09:51:02.475Z,70.79
2018-10-12T09:52:02.484Z,69.43
2018-10-12T09:53:02.494Z,68.89
2018-10-12T09:54:02.506Z,68.30
2018-10-12T09:55:02.514Z,68.30
2018-10-12T09:56:02.561Z,68.21
2018-10-12T09:57:02.538Z,68.85
2018-10-12T09:58:02.545Z,69.31
2018-10-12T09:59:02.553Z,69.59
2018-10-12T10:00:02.564Z,70.01
2018-10-12T10:01:02.574Z,69.08
2018-10-12T10:02:02.618Z,68.79
2018-10-12T10:03:02.597Z,68.99
2018-10-12T10:04:02.605Z,68.82
2018-10-12T10:05:02.616Z,68.30
2018-10-12T10:06:02.627Z,67.57
2018-10-12T10:07:02.636Z,67.63
2018-10-12T10:08:02.822Z,67.76
2018-10-12T10:09:02.729Z,66.72
2018-10-12T10:10:02.667Z,66.63
2018-10-12T10:11:02.680Z,66.85
2018-10-12T10:12:02.690Z,68.21
2018-10-12T10:13:02.697Z,70.53
2018-10-12T10:14:02.709Z,73.36
2018-10-12T10:15:02.719Z,75.06
2018-10-12T10:16:02.729Z,76.12
2018-10-12T10:17:02.740Z,76.03
2018-10-12T10:18:02.751Z,75.99
2018-10-12T10:19:02.762Z,76.76
2018-10-12T10:20:02.770Z,76.72
2018-10-12T10:21:02.779Z,76.86
2018-10-12T10:22:02.791Z,76.76
2018-10-12T10:23:02.797Z,76.67
2018-10-12T10:24:02.807Z,77.05
2018-10-12T10:25:02.895Z,76.67
2018-10-12T10:26:02.826Z,76.47
2018-10-12T10:27:02.832Z,76.37
2018-10-12T10:28:02.841Z,76.03
2018-10-12T10:29:02.895Z,75.06
2018-10-12T10:30:02.856Z,75.16
2018-10-12T10:31:02.862Z,75.35
2018-10-12T10:32:02.922Z,75.93
2018-10-12T10:33:02.879Z,75.74
2018-10-12T10:34:02.887Z,75.45
2018-10-12T10:35:02.895Z,75.45
2018-10-12T10:36:02.901Z,75.64
2018-10-12T10:37:02.908Z,75.74
2018-10-12T10:38:02.915Z,75.93
2018-10-12T10:39:02.985Z,76.03
2018-10-12T10:40:02.927Z,75.87
2018-10-12T10:41:02.934Z,75.78
2018-10-12T10:42:02.940Z,75.29
2018-10-12T10:43:02.945Z,75.48
2018-10-12T10:44:02.952Z,75.20
2018-10-12T10:45:02.958Z,75.00
2018-10-12T10:46:02.964Z,74.71
2018-10-12T10:47:02.969Z,74.42
2018-10-12T10:48:02.974Z,73.74
2018-10-12T10:49:02.985Z,74.04
2018-10-12T10:50:02.987Z,74.04
2018-10-12T10:51:02.994Z,73.68
2018-10-12T10:52:02.998Z,73.68
2018-10-12T10:53:03.005Z,74.42
2018-10-12T10:54:03.012Z,75.00
2018-10-12T10:55:03.015Z,74.32
2018-10-12T10:56:03.022Z,74.13
2018-10-12T10:57:03.028Z,75.10
2018-10-12T10:58:03.033Z,74.32
2018-10-12T10:59:03.037Z,74.42
2018-10-12T11:00:03.046Z,75.29
2018-10-12T11:01:03.094Z,75.10
2018-10-12T11:02:03.056Z,74.23
2018-10-12T11:03:03.059Z,75.00
2018-10-12T11:04:03.068Z,74.32
2018-10-12T11:05:03.072Z,74.52
2018-10-12T11:06:03.076Z,74.32
2018-10-12T11:07:03.082Z,74.62
2018-10-12T11:08:03.087Z,74.38
2018-10-12T11:09:03.092Z,74.48
2018-10-12T11:10:03.099Z,74.96
2018-10-12T11:11:03.104Z,74.77
2018-10-12T11:12:03.112Z,74.81
2018-10-12T11:13:03.234Z,74.46
2018-10-12T11:14:03.122Z,73.88
2018-10-12T11:15:03.124Z,73.49
2018-10-12T11:16:03.130Z,72.72
2018-10-12T11:17:03.135Z,72.85
2018-10-12T11:18:03.142Z,73.59
2018-10-12T11:19:03.145Z,73.20
2018-10-12T11:20:03.152Z,73.49
2018-10-12T11:21:03.156Z,73.78
2018-10-12T11:22:03.161Z,73.01
2018-10-12T11:23:03.166Z,72.81
2018-10-12T11:24:03.173Z,73.10
2018-10-12T11:25:03.177Z,73.59
2018-10-12T11:26:03.183Z,74.13
2018-10-12T11:27:03.187Z,73.65
2018-10-12T11:28:03.192Z,73.55
2018-10-12T11:29:03.198Z,73.16
2018-10-12T11:30:03.203Z,73.20
2018-10-12T11:31:03.209Z,73.97
2018-10-12T11:32:03.214Z,73.26
2018-10-12T11:33:03.237Z,73.55
2018-10-12T11:34:03.229Z,73.84
2018-10-12T11:35:03.232Z,74.13
2018-10-12T11:36:03.234Z,73.59
2018-10-12T11:37:03.241Z,73.74
2018-10-12T11:38:03.246Z,73.26
2018-10-12T11:39:03.250Z,73.46
2018-10-12T11:40:03.254Z,73.65
2018-10-12T11:41:03.261Z,73.55
2018-10-12T11:42:03.264Z,73.26
2018-10-12T11:43:03.270Z,73.49
2018-10-12T11:44:03.275Z,72.81
2018-10-12T11:45:03.347Z,73.39
2018-10-12T11:46:03.285Z,72.75
2018-10-12T11:47:03.288Z,72.91
2018-10-12T11:48:03.295Z,72.27
2018-10-12T11:49:03.307Z,72.46
2018-10-12T11:50:03.305Z,72.85
2018-10-12T11:51:03.309Z,72.17
2018-10-12T11:52:03.336Z,72.72
2018-10-12T11:53:03.319Z,73.33
2018-10-12T11:54:03.324Z,72.42
2018-10-12T11:55:03.329Z,72.62
2018-10-12T11:56:03.332Z,72.91
2018-10-12T11:57:03.340Z,73.59
2018-10-12T11:58:03.345Z,73.68
2018-10-12T11:59:03.347Z,74.32
2018-10-12T12:00:03.355Z,74.13
2018-10-12T12:01:03.386Z,74.32
2018-10-12T12:02:03.420Z,74.23
2018-10-12T12:03:03.871Z,74.04
2018-10-12T12:04:03.372Z,73.97
2018-10-12T12:05:03.379Z,73.84
2018-10-12T12:06:03.382Z,73.68
2018-10-12T12:07:03.386Z,74.07
2018-10-12T12:08:03.391Z,73.30
2018-10-12T12:09:03.396Z,72.72
2018-10-12T12:10:03.405Z,73.10
2018-10-12T12:11:03.406Z,73.68
2018-10-12T12:12:03.410Z,73.20
2018-10-12T12:13:03.438Z,73.49
2018-10-12T12:14:03.502Z,73.59
2018-10-12T12:15:03.424Z,73.49
2018-10-12T12:16:03.431Z,73.39
2018-10-12T12:17:03.435Z,73.20
2018-10-12T12:18:03.439Z,73.01
2018-10-12T12:19:03.446Z,73.14
2018-10-12T12:20:03.449Z,73.43
2018-10-12T12:21:03.457Z,72.85
2018-10-12T12:22:03.458Z,73.24
2018-10-12T12:23:03.462Z,72.36
2018-10-12T12:24:03.471Z,72.56
2018-10-12T12:25:03.472Z,72.36
2018-10-12T12:26:03.478Z,72.27
2018-10-12T12:27:03.484Z,72.56
2018-10-12T12:28:03.486Z,73.04
2018-10-12T12:29:03.492Z,72.56
2018-10-12T12:30:03.496Z,73.20
2018-10-12T12:31:03.501Z,73.33
2018-10-12T12:32:03.506Z,72.72
2018-10-12T12:33:03.509Z,72.62
2018-10-12T12:34:03.515Z,72.81
2018-10-12T12:35:03.666Z,72.75
2018-10-12T12:36:03.623Z,73.63
2018-10-12T12:37:03.528Z,72.66
2018-10-12T12:38:03.535Z,73.43
2018-10-12T12:39:03.537Z,72.75
2018-10-12T12:40:03.542Z,72.27
2018-10-12T12:41:03.548Z,71.98
2018-10-12T12:42:03.552Z,72.46
2018-10-12T12:43:03.557Z,72.27
2018-10-12T12:44:03.560Z,71.59
2018-10-12T12:45:03.565Z,71.62
2018-10-12T12:46:03.570Z,71.24
2018-10-12T12:47:03.595Z,71.30
2018-10-12T12:48:03.772Z,71.59
2018-10-12T12:49:03.839Z,72.36
2018-10-12T12:50:03.590Z,72.46
2018-10-12T12:51:03.594Z,72.27
2018-10-12T12:52:03.599Z,72.56